Time;durP1;ratioP1;P1;durP2;ratioP2;P2;SDS_P1;SDS_P2;PMS_P1;PMS_P2;Temp;Humidity;BMP_temperature;BMP_pressure;BME280_temperature;BME280_humidity;BME280_pressure;Samples;Min_cycle;Max_cycle;Signal;HPM_P1;HPM_P2
2023/05/24 00:02:53;;;;;;;5.78;3.28;;;16.40;96.70;;;;;;6252953;28;20072;-75
2023/05/24 00:05:56;;;;;;;6.22;3.15;;;16.40;97.10;;;;;;6248880;28;20045;-76
2023/05/24 00:08:58;;;;;;;5.38;3.30;;;16.30;97.10;;;;;;6248824;28;20061;-75
2023/05/24 00:12:00;;;;;;;6.80;3.90;;;16.20;97.30;;;;;;6248824;28;20045;-76
2023/05/24 00:15:02;;;;;;;6.28;3.33;;;15.90;97.90;;;;;;6248877;28;20046;-76
2023/05/24 00:18:04;;;;;;;6.28;3.58;;;15.90;97.80;;;;;;6248589;28;20491;-76
2023/05/24 00:21:08;;;;;;;6.57;3.55;;;15.60;98.30;;;;;;6248276;28;20391;-74
2023/05/24 00:24:10;;;;;;;5.93;3.40;;;15.80;98.10;;;;;;6248276;28;20433;-76
2023/05/24 00:27:11;;;;;;;7.85;3.50;;;15.80;98.10;;;;;;6248732;28;20052;-74
2023/05/24 00:30:13;;;;;;;6.45;3.10;;;15.90;96.50;;;;;;6248739;28;20152;-76
2023/05/24 00:33:15;;;;;;;5.80;3.15;;;16.00;95.50;;;;;;6248282;28;20045;-76
2023/05/24 00:36:18;;;;;;;7.45;3.60;;;15.90;95.30;;;;;;6248492;28;20455;-77
2023/05/24 00:39:20;;;;;;;5.90;3.20;;;15.90;95.00;;;;;;6248328;28;20148;-76
2023/05/24 00:42:22;;;;;;;6.85;3.00;;;15.90;95.00;;;;;;6247790;28;20501;-76
2023/05/24 00:45:24;;;;;;;8.15;3.35;;;15.90;94.90;;;;;;6247995;28;20097;-74
2023/05/24 00:48:27;;;;;;;7.05;2.83;;;15.90;94.80;;;;;;6247923;28;20050;-76
2023/05/24 00:51:32;;;;;;;7.97;3.42;;;15.80;94.90;;;;;;6247772;28;20487;-75
2023/05/24 00:54:34;;;;;;;6.30;2.95;;;15.50;94.40;;;;;;6247522;28;20061;-76
2023/05/24 00:57:37;;;;;;;6.05;2.90;;;15.60;94.50;;;;;;6247795;28;20100;-74
2023/05/24 01:00:39;;;;;;;5.70;2.88;;;15.60;94.50;;;;;;6247406;28;20053;-76
2023/05/24 01:03:40;;;;;;;4.95;2.85;;;15.70;94.20;;;;;;6247394;28;20045;-76
2023/05/24 01:06:58;;;;;;;6.57;2.75;;;15.70;93.30;;;;;;6247446;28;20045;-74
2023/05/24 01:10:06;;;;;;;6.97;2.83;;;15.60;92.50;;;;;;6247483;28;20079;-75
2023/05/24 01:13:21;;;;;;;7.00;3.10;;;15.60;92.40;;;;;;6247311;28;20045;-74
2023/05/24 01:16:27;;;;;;;6.57;2.78;;;15.50;92.20;;;;;;6247736;28;20056;-75
2023/05/24 01:19:49;;;;;;;6.00;2.65;;;15.50;92.10;;;;;;6247085;28;20056;-76
2023/05/24 01:23:15;;;;;;;6.75;2.75;;;15.50;92.10;;;;;;6247136;28;20053;-77
2023/05/24 01:26:32;;;;;;;6.25;2.78;;;15.50;92.00;;;;;;6247286;28;20053;-76
2023/05/24 01:29:36;;;;;;;7.68;3.42;;;15.50;92.10;;;;;;6247247;28;20136;-76
2023/05/24 01:32:38;;;;;;;6.78;3.22;;;15.40;92.40;;;;;;6247312;28;20056;-76
2023/05/24 01:35:41;;;;;;;6.43;2.70;;;15.30;92.20;;;;;;6246186;28;20046;-76
2023/05/24 01:38:43;;;;;;;6.82;3.20;;;15.30;92.80;;;;;;6247357;28;20050;-74
2023/05/24 01:41:57;;;;;;;11.80;2.95;;;15.40;92.60;;;;;;6247111;28;20045;-76
2023/05/24 01:45:10;;;;;;;6.82;3.03;;;15.20;92.90;;;;;;6248569;28;20498;-76
2023/05/24 01:48:19;;;;;;;6.63;3.00;;;15.30;92.50;;;;;;6250410;28;20057;-76
2023/05/24 01:51:25;;;;;;;7.32;2.70;;;15.30;92.70;;;;;;6249143;28;20483;-76
2023/05/24 01:54:31;;;;;;;7.28;2.95;;;15.40;92.40;;;;;;6248954;28;20054;-78
2023/05/24 01:57:35;;;;;;;7.80;2.83;;;15.30;92.50;;;;;;6251004;28;20480;-76
2023/05/24 02:00:40;;;;;;;7.90;3.10;;;15.20;92.90;;;;;;6249756;28;20064;-77
2023/05/24 02:03:42;;;;;;;7.78;3.20;;;15.40;92.80;;;;;;6249855;28;20048;-76
2023/05/24 02:06:44;;;;;;;6.97;2.83;;;15.40;92.70;;;;;;6252391;28;20045;-77
2023/05/24 02:09:46;;;;;;;7.70;2.90;;;15.50;92.70;;;;;;6258558;28;20099;-74
2023/05/24 02:12:47;;;;;;;7.22;2.95;;;15.50;92.90;;;;;;6263581;28;20045;-77
2023/05/24 02:15:52;;;;;;;7.07;3.10;;;15.40;92.90;;;;;;6249852;28;20053;-75
2023/05/24 02:18:54;;;;;;;9.00;3.17;;;15.40;92.80;;;;;;6246839;28;20064;-77
2023/05/24 02:21:56;;;;;;;5.97;2.80;;;15.30;93.10;;;;;;6246281;28;20049;-75
2023/05/24 02:24:58;;;;;;;7.35;3.03;;;15.30;93.10;;;;;;6246705;28;20045;-77
2023/05/24 02:28:00;;;;;;;7.82;3.20;;;15.30;93.20;;;;;;6246488;28;20487;-76
2023/05/24 02:31:04;;;;;;;8.57;3.38;;;15.40;93.20;;;;;;6246711;28;20049;-73
2023/05/24 02:34:08;;;;;;;6.15;2.85;;;15.30;93.30;;;;;;6246365;28;20180;-76
2023/05/24 02:37:13;;;;;;;7.38;3.40;;;15.40;93.20;;;;;;6246626;28;20064;-76
2023/05/24 02:40:15;;;;;;;7.75;3.28;;;15.20;93.00;;;;;;6246296;28;20053;-74
2023/05/24 02:43:17;;;;;;;8.75;3.63;;;15.20;93.60;;;;;;6246471;28;20100;-74
2023/05/24 02:46:20;;;;;;;8.02;3.10;;;15.10;93.50;;;;;;6246919;28;20052;-74
2023/05/24 02:49:22;;;;;;;7.63;3.40;;;15.10;93.70;;;;;;6250773;28;20051;-77
2023/05/24 02:52:25;;;;;;;6.72;3.10;;;15.20;93.60;;;;;;6233082;28;20046;-76
2023/05/24 02:55:27;;;;;;;7.38;2.97;;;15.00;93.40;;;;;;6250515;28;20056;-78
2023/05/24 02:58:29;;;;;;;6.70;3.10;;;15.00;94.00;;;;;;6250539;28;20503;-75
2023/05/24 03:01:34;;;;;;;9.25;3.38;;;15.00;93.90;;;;;;6250074;28;20057;-74
2023/05/24 03:04:36;;;;;;;10.13;3.28;;;15.00;94.00;;;;;;6250581;28;20045;-74
2023/05/24 03:07:38;;;;;;;7.47;3.13;;;14.90;93.70;;;;;;6250187;28;20046;-74
2023/05/24 03:10:39;;;;;;;7.80;3.30;;;15.00;93.80;;;;;;6250231;28;20061;-76
2023/05/24 03:13:41;;;;;;;7.57;3.28;;;14.90;94.10;;;;;;6250109;28;20081;-76
2023/05/24 03:16:45;;;;;;;9.80;3.50;;;14.80;94.00;;;;;;6250191;28;20141;-75
2023/05/24 03:19:46;;;;;;;8.00;3.50;;;14.90;93.90;;;;;;6250530;28;20391;-75
2023/05/24 03:22:48;;;;;;;6.65;3.10;;;14.90;93.90;;;;;;6249659;28;20049;-75
2023/05/24 03:25:50;;;;;;;11.07;3.88;;;14.80;93.80;;;;;;6249806;28;20056;-75
2023/05/24 03:28:55;;;;;;;10.13;4.00;;;14.70;93.80;;;;;;6249737;28;20411;-74
2023/05/24 03:31:58;;;;;;;8.02;3.60;;;14.70;94.20;;;;;;6249758;28;20127;-76
2023/05/24 03:35:00;;;;;;;9.70;3.55;;;14.70;93.80;;;;;;6249526;28;20057;-75
2023/05/24 03:38:02;;;;;;;9.25;3.40;;;14.60;94.20;;;;;;6249714;28;20045;-75
2023/05/24 03:41:04;;;;;;;8.32;3.38;;;14.20;94.40;;;;;;6249259;28;20056;-75
2023/05/24 03:44:06;;;;;;;8.82;3.60;;;14.50;94.70;;;;;;6249544;28;20064;-78
2023/05/24 03:47:09;;;;;;;9.07;3.55;;;14.60;95.00;;;;;;6249234;28;20693;-74
2023/05/24 03:50:13;;;;;;;7.20;3.10;;;14.20;94.90;;;;;;6249115;28;20430;-76
2023/05/24 03:53:15;;;;;;;11.00;3.58;;;14.30;95.40;;;;;;6249192;28;20104;-74
2023/05/24 03:56:17;;;;;;;10.48;4.47;;;14.40;94.90;;;;;;6249564;28;20045;-74
2023/05/24 03:59:19;;;;;;;8.00;3.63;;;14.50;95.00;;;;;;6248023;28;20053;-76
2023/05/24 04:02:22;;;;;;;9.48;4.00;;;14.50;94.80;;;;;;6249370;28;20057;-76
2023/05/24 04:05:25;;;;;;;8.95;4.00;;;14.50;95.00;;;;;;6249178;28;20057;-77
2023/05/24 04:08:27;;;;;;;10.23;3.78;;;14.70;95.10;;;;;;6248829;28;20208;-75
2023/05/24 04:11:29;;;;;;;9.82;3.50;;;14.70;94.80;;;;;;6249086;28;20050;-76
2023/05/24 04:14:31;;;;;;;9.95;3.47;;;14.60;95.10;;;;;;6248804;28;20049;-76
2023/05/24 04:17:34;;;;;;;10.05;3.63;;;14.70;95.10;;;;;;6248811;28;20055;-76
2023/05/24 04:20:37;;;;;;;10.05;3.50;;;14.60;95.20;;;;;;6248568;28;20058;-75
2023/05/24 04:23:39;;;;;;;9.18;3.25;;;14.60;95.40;;;;;;6248589;28;20126;-76
2023/05/24 04:26:40;;;;;;;10.82;3.83;;;14.60;95.40;;;;;;6248823;28;20045;-75
2023/05/24 04:29:48;;;;;;;12.65;4.40;;;14.60;95.30;;;;;;6248555;28;20049;-74
2023/05/24 04:32:51;;;;;;;13.00;4.43;;;14.20;96.20;;;;;;6248540;28;20144;-75
2023/05/24 04:35:53;;;;;;;10.73;3.90;;;14.20;95.60;;;;;;6248767;28;20064;-77
2023/05/24 04:39:01;;;;;;;10.15;3.85;;;14.40;95.80;;;;;;6248014;28;20049;-77
2023/05/24 04:42:03;;;;;;;8.18;3.58;;;14.50;95.80;;;;;;6248347;28;20041;-75
2023/05/24 04:45:06;;;;;;;11.05;3.97;;;14.50;95.50;;;;;;6248041;28;20056;-74
2023/05/24 04:48:10;;;;;;;10.23;3.72;;;14.50;95.10;;;;;;6248303;28;20053;-76
2023/05/24 04:51:11;;;;;;;11.60;3.92;;;14.60;95.30;;;;;;6248131;28;20057;-76
2023/05/24 04:54:13;;;;;;;9.35;3.47;;;14.70;95.20;;;;;;6247712;28;20048;-76
2023/05/24 04:57:15;;;;;;;9.48;3.53;;;14.70;95.00;;;;;;6247945;28;20091;-77
2023/05/24 05:00:18;;;;;;;9.43;4.07;;;14.80;94.90;;;;;;6247485;28;20069;-76
2023/05/24 05:03:22;;;;;;;12.60;3.60;;;14.80;94.70;;;;;;6247438;28;20049;-77
2023/05/24 05:06:24;;;;;;;13.27;4.30;;;14.70;95.00;;;;;;6247559;28;20052;-75
2023/05/24 05:09:27;;;;;;;11.25;4.03;;;14.70;95.00;;;;;;6247207;28;20184;-75
2023/05/24 05:12:28;;;;;;;9.18;3.75;;;14.60;95.10;;;;;;6247249;28;20052;-75
2023/05/24 05:15:31;;;;;;;12.70;4.15;;;14.70;95.30;;;;;;6247652;28;20428;-76
2023/05/24 05:18:34;;;;;;;13.27;4.07;;;14.50;95.10;;;;;;6247305;28;20049;-75
2023/05/24 05:21:38;;;;;;;14.48;4.72;;;14.30;95.00;;;;;;6247332;28;20060;-74
2023/05/24 05:24:40;;;;;;;10.18;4.07;;;14.20;95.60;;;;;;6247750;28;20049;-75
2023/05/24 05:27:42;;;;;;;10.95;3.50;;;14.50;95.20;;;;;;6247792;28;20057;-76
2023/05/24 05:30:44;;;;;;;11.93;4.25;;;14.40;94.70;;;;;;6247366;28;20411;-75
2023/05/24 05:33:47;;;;;;;9.68;3.75;;;14.50;94.70;;;;;;6247977;28;20046;-76
2023/05/24 05:36:49;;;;;;;12.35;4.00;;;14.40;94.80;;;;;;6247880;28;20076;-75
2023/05/24 05:39:51;;;;;;;12.90;3.97;;;14.20;95.20;;;;;;6250369;28;20053;-75
2023/05/24 05:42:53;;;;;;;12.50;4.32;;;14.30;94.90;;;;;;6251284;28;20384;-73
2023/05/24 05:45:55;;;;;;;9.85;3.83;;;14.50;95.10;;;;;;6257458;28;20045;-77
2023/05/24 05:48:58;;;;;;;11.00;3.47;;;14.30;94.40;;;;;;6259755;28;20057;-76
2023/05/24 05:52:00;;;;;;;13.63;4.38;;;14.40;94.50;;;;;;6251545;28;20053;-76
2023/05/24 05:55:02;;;;;;;12.35;4.38;;;14.40;94.10;;;;;;6264208;28;20104;-75
2023/05/24 05:58:04;;;;;;;9.43;4.07;;;14.30;94.50;;;;;;6265236;28;20494;-74
2023/05/24 06:01:05;;;;;;;10.40;4.00;;;14.40;94.40;;;;;;6265395;28;20057;-75
2023/05/24 06:04:09;;;;;;;13.32;4.28;;;14.30;94.30;;;;;;6261872;28;20046;-76
2023/05/24 06:07:11;;;;;;;12.90;4.10;;;14.30;94.40;;;;;;6248375;28;20415;-76
2023/05/24 06:10:13;;;;;;;12.13;3.92;;;14.40;94.10;;;;;;6246760;28;20054;-75
2023/05/24 06:13:15;;;;;;;11.00;3.67;;;14.40;94.00;;;;;;6246743;28;20041;-75
2023/05/24 06:16:17;;;;;;;12.52;4.32;;;14.50;93.80;;;;;;6257930;28;20045;-77
2023/05/24 06:19:20;;;;;;;12.93;4.05;;;14.40;93.90;;;;;;6267629;28;20049;-76
2023/05/24 06:22:22;;;;;;;12.88;3.70;;;14.30;93.90;;;;;;6269841;28;20079;-76
2023/05/24 06:25:25;;;;;;;13.35;4.50;;;14.50;93.80;;;;;;6271556;28;20057;-75
2023/05/24 06:28:27;;;;;;;12.73;3.92;;;14.60;93.40;;;;;;6271449;28;20041;-75
2023/05/24 06:31:29;;;;;;;10.52;3.80;;;14.20;93.40;;;;;;6268438;28;20057;-75
2023/05/24 06:34:32;;;;;;;12.93;4.22;;;14.30;93.80;;;;;;6255572;28;20072;-74
2023/05/24 06:37:34;;;;;;;11.30;3.40;;;14.30;94.00;;;;;;6251404;28;20041;-75
2023/05/24 06:40:36;;;;;;;11.13;3.97;;;14.40;94.00;;;;;;6250961;28;20053;-75
2023/05/24 06:43:39;;;;;;;13.52;4.22;;;14.70;93.40;;;;;;6251008;28;20053;-76
2023/05/24 06:46:41;;;;;;;12.95;3.83;;;14.80;93.00;;;;;;6250802;28;20060;-76
2023/05/24 06:49:44;;;;;;;12.85;4.28;;;14.60;93.10;;;;;;6250667;28;20067;-76
2023/05/24 06:52:46;;;;;;;12.38;4.05;;;14.40;93.20;;;;;;6250477;28;20048;-75
2023/05/24 06:55:48;;;;;;;15.20;4.20;;;14.40;93.90;;;;;;6250521;28;20050;-74
2023/05/24 06:58:49;;;;;;;12.48;4.43;;;14.70;93.50;;;;;;6250471;28;20057;-75
2023/05/24 07:01:56;;;;;;;11.52;4.00;;;14.30;93.60;;;;;;6250669;28;20128;-76
2023/05/24 07:04:59;;;;;;;14.25;4.50;;;14.10;94.10;;;;;;6250399;28;20446;-76
2023/05/24 07:08:01;;;;;;;14.05;3.92;;;14.30;93.20;;;;;;6251032;28;20056;-75
2023/05/24 07:11:03;;;;;;;15.18;4.30;;;14.30;93.30;;;;;;6253492;28;20049;-77
2023/05/24 07:14:05;;;;;;;14.98;4.47;;;14.40;93.40;;;;;;6252680;28;20049;-75
2023/05/24 07:17:07;;;;;;;13.82;4.25;;;14.20;93.40;;;;;;6250570;28;20068;-75
2023/05/24 07:20:12;;;;;;;11.15;3.70;;;14.50;93.10;;;;;;6251119;28;20546;-74
2023/05/24 07:23:14;;;;;;;12.02;4.00;;;14.60;93.30;;;;;;6251316;28;20164;-75
2023/05/24 07:26:16;;;;;;;17.35;4.45;;;14.50;93.00;;;;;;6250831;28;20045;-76
2023/05/24 07:29:20;;;;;;;13.95;4.07;;;14.60;93.00;;;;;;6252016;28;20053;-73
2023/05/24 07:32:22;;;;;;;13.23;3.97;;;14.50;93.10;;;;;;6251510;28;20046;-74
2023/05/24 07:35:25;;;;;;;12.48;4.03;;;14.50;92.60;;;;;;6250836;28;20503;-77
2023/05/24 07:38:28;;;;;;;11.18;4.00;;;14.80;92.30;;;;;;6250351;28;20042;-75
2023/05/24 07:41:30;;;;;;;12.95;4.60;;;14.60;92.50;;;;;;6250333;28;20095;-76
2023/05/24 07:44:32;;;;;;;14.95;4.30;;;14.80;92.60;;;;;;6250358;28;20141;-74
2023/05/24 07:47:33;;;;;;;12.13;4.10;;;14.80;93.10;;;;;;6250626;28;20060;-76
2023/05/24 07:50:37;;;;;;;11.00;4.07;;;14.80;92.90;;;;;;6250308;28;20092;-73
2023/05/24 07:53:39;;;;;;;11.30;4.00;;;15.00;92.60;;;;;;6250456;28;20122;-73
2023/05/24 07:56:41;;;;;;;12.18;4.13;;;15.00;93.00;;;;;;6250141;28;20471;-76
2023/05/24 07:59:43;;;;;;;14.55;4.32;;;14.80;92.90;;;;;;6250354;28;20056;-74
2023/05/24 08:02:46;;;;;;;10.93;4.07;;;15.00;92.00;;;;;;6250098;28;20415;-75
2023/05/24 08:05:49;;;;;;;18.30;4.68;;;15.10;91.90;;;;;;6250326;28;20076;-74
2023/05/24 08:08:51;;;;;;;11.35;4.40;;;15.00;92.30;;;;;;6253983;28;20041;-76
2023/05/24 08:11:54;;;;;;;12.88;4.13;;;14.90;92.70;;;;;;6250729;28;20052;-74
2023/05/24 08:14:55;;;;;;;13.07;4.30;;;15.00;92.60;;;;;;6250772;28;20053;-75
2023/05/24 08:17:57;;;;;;;12.48;4.15;;;14.70;92.90;;;;;;6250341;28;20057;-75
2023/05/24 08:21:01;;;;;;;12.95;4.28;;;14.80;93.30;;;;;;6249237;28;20057;-75
2023/05/24 08:24:03;;;;;;;33.25;8.43;;;14.90;93.40;;;;;;6249028;28;20139;-74
2023/05/24 08:27:06;;;;;;;30.85;7.53;;;14.50;93.40;;;;;;6249140;28;20487;-75
2023/05/24 08:30:09;;;;;;;10.90;4.53;;;14.70;93.80;;;;;;6250266;28;20049;-75
2023/05/24 08:33:11;;;;;;;12.95;4.32;;;14.80;93.00;;;;;;6249222;28;20150;-76
2023/05/24 08:36:15;;;;;;;12.75;4.53;;;14.80;93.50;;;;;;6248930;28;20049;-76
2023/05/24 08:39:17;;;;;;;11.60;4.40;;;14.80;93.80;;;;;;6250985;28;20092;-75
2023/05/24 08:42:20;;;;;;;11.88;4.13;;;14.90;93.30;;;;;;6262289;28;20097;-75
2023/05/24 08:45:22;;;;;;;15.40;4.18;;;15.00;93.40;;;;;;6263313;28;20054;-76
2023/05/24 08:48:25;;;;;;;16.63;4.80;;;15.10;93.10;;;;;;6263800;28;20057;-77
2023/05/24 08:51:29;;;;;;;11.85;4.68;;;15.10;93.00;;;;;;6249365;28;20491;-76
2023/05/24 08:54:32;;;;;;;12.55;4.55;;;15.20;93.10;;;;;;6248635;28;20475;-74
2023/05/24 08:57:38;;;;;;;11.55;4.22;;;15.10;93.50;;;;;;6253676;28;20052;-75
2023/05/24 09:00:40;;;;;;;12.07;4.53;;;15.20;93.20;;;;;;6234088;28;20045;-74
2023/05/24 09:03:44;;;;;;;11.40;4.38;;;15.20;92.70;;;;;;6250431;28;20535;-74
2023/05/24 09:06:47;;;;;;;;;;;15.20;92.40;;;;;;6250447;28;20057;-74
2023/05/24 09:09:59;;;;;;;12.65;4.85;;;15.30;92.40;;;;;;6249780;28;19928;-73
2023/05/24 09:13:03;;;;;;;18.43;5.33;;;15.40;91.60;;;;;;6254174;28;20053;-73
2023/05/24 09:16:07;;;;;;;;;;;15.30;92.20;;;;;;6255560;28;20045;-74
2023/05/24 09:19:08;;;;;;;17.17;4.65;;;15.30;92.60;;;;;;6252636;28;19928;-75
2023/05/24 09:22:13;;;;;;;10.57;4.53;;;15.20;92.50;;;;;;6247972;28;20072;-74
2023/05/24 09:25:15;;;;;;;12.30;4.50;;;15.60;92.80;;;;;;6249051;28;20045;-77
2023/05/24 09:28:19;;;;;;;11.27;4.47;;;15.70;91.60;;;;;;6249374;28;20041;-76
2023/05/24 09:31:33;;;;;;;14.07;4.63;;;15.90;91.60;;;;;;6251088;28;20179;-75
2023/05/24 09:34:39;;;;;;;13.77;5.00;;;15.80;91.50;;;;;;6247759;28;20046;-75
2023/05/24 09:37:44;;;;;;;13.73;4.60;;;15.60;91.70;;;;;;6248165;28;20052;-77
2023/05/24 09:40:46;;;;;;;12.43;4.50;;;15.40;91.60;;;;;;6247663;28;20396;-76
2023/05/24 09:43:49;;;;;;;12.35;4.43;;;15.70;91.00;;;;;;6247500;28;20398;-76
2023/05/24 09:46:52;;;;;;;14.27;4.78;;;15.50;91.80;;;;;;6247902;28;20415;-77
2023/05/24 09:49:54;;;;;;;10.38;4.38;;;15.80;91.30;;;;;;6247553;28;20057;-76
2023/05/24 09:52:57;;;;;;;14.85;4.57;;;15.70;91.30;;;;;;6247658;28;20426;-77
2023/05/24 09:56:00;;;;;;;15.88;4.97;;;15.70;91.50;;;;;;6247869;28;20051;-75
2023/05/24 09:59:07;;;;;;;13.13;4.70;;;15.80;90.80;;;;;;6252710;28;20053;-75
2023/05/24 10:02:11;;;;;;;13.85;4.75;;;15.90;90.60;;;;;;6252925;28;20045;-77
2023/05/24 10:05:13;;;;;;;14.50;4.30;;;15.70;91.10;;;;;;6252790;28;20132;-75
2023/05/24 10:08:17;;;;;;;9.75;4.00;;;15.70;91.20;;;;;;6252835;28;20061;-74
2023/05/24 10:11:20;;;;;;;12.65;4.43;;;15.80;91.60;;;;;;6252728;28;20056;-74
2023/05/24 10:14:23;;;;;;;11.27;4.57;;;15.90;90.70;;;;;;6252734;28;20045;-77
2023/05/24 10:17:26;;;;;;;14.20;4.67;;;15.70;90.40;;;;;;6252327;28;20053;-77
2023/05/24 10:20:28;;;;;;;12.63;4.75;;;15.60;91.00;;;;;;6252202;28;20666;-73
2023/05/24 10:23:33;;;;;;;11.70;4.40;;;15.70;90.60;;;;;;6252219;28;20111;-77
2023/05/24 10:26:38;;;;;;;12.32;3.97;;;15.80;90.10;;;;;;6252020;28;20049;-76
2023/05/24 10:29:50;;;;;;;12.30;4.28;;;15.80;90.40;;;;;;6251952;28;20052;-75
2023/05/24 10:32:56;;;;;;;11.75;4.32;;;15.60;90.70;;;;;;6252288;28;20048;-75
2023/05/24 10:35:58;;;;;;;13.05;4.72;;;15.40;90.80;;;;;;6252150;28;20052;-76
2023/05/24 10:39:02;;;;;;;9.25;4.18;;;15.50;90.90;;;;;;6251649;28;20060;-75
2023/05/24 10:42:05;;;;;;;;;;;15.50;90.50;;;;;;6251996;28;20176;-76
2023/05/24 10:45:34;;;;;;;;;;;15.50;91.10;;;;;;6252170;28;20002;-74
2023/05/24 10:48:40;;;;;;;12.02;4.47;;;15.50;90.60;;;;;;6251245;28;20382;-77
2023/05/24 10:51:42;;;;;;;16.63;4.57;;;15.40;90.80;;;;;;6251463;28;20046;-74
2023/05/24 10:55:04;;;;;;;12.15;4.47;;;15.40;90.80;;;;;;6251577;28;20137;-77
2023/05/24 10:58:06;;;;;;;;;;;15.20;90.50;;;;;;6251758;28;20046;-73
2023/05/24 11:01:13;;;;;;;11.80;3.83;;;15.20;90.40;;;;;;6251615;28;19927;-76
2023/05/24 11:04:17;;;;;;;12.45;4.60;;;15.40;90.00;;;;;;6255524;28;20274;-76
2023/05/24 11:07:18;;;;;;;;;;;15.40;89.90;;;;;;6251599;28;20061;-74
2023/05/24 11:10:30;;;;;;;13.15;4.35;;;15.30;89.20;;;;;;6251126;28;20286;-77
2023/05/24 11:13:33;;;;;;;14.27;4.63;;;15.30;89.60;;;;;;6251000;28;20072;-75
2023/05/24 11:16:38;;;;;;;9.25;3.88;;;15.40;90.10;;;;;;6250680;28;20045;-74
2023/05/24 11:19:47;;;;;;;12.57;4.18;;;15.30;90.40;;;;;;6250726;28;20475;-75
2023/05/24 11:22:50;;;;;;;9.80;4.07;;;15.20;90.20;;;;;;6224795;28;20053;-74
2023/05/24 11:25:53;;;;;;;10.80;3.85;;;15.10;90.10;;;;;;6226285;28;20057;-75
2023/05/24 11:28:55;;;;;;;13.35;4.10;;;14.90;90.80;;;;;;6227278;28;20523;-77
2023/05/24 11:32:03;;;;;;;13.68;4.35;;;14.70;91.20;;;;;;6228650;28;20053;-75
2023/05/24 11:35:07;;;;;;;17.38;4.53;;;14.60;91.10;;;;;;6227570;28;20134;-75
2023/05/24 11:38:13;;;;;;;11.95;4.78;;;14.70;91.60;;;;;;6225816;28;20076;-76
2023/05/24 11:41:17;;;;;;;14.70;4.55;;;15.00;91.30;;;;;;6225845;28;20049;-75
2023/05/24 11:44:21;;;;;;;14.15;5.28;;;15.10;91.20;;;;;;6226175;28;20136;-75
2023/05/24 11:47:23;;;;;;;12.45;4.30;;;14.90;91.40;;;;;;6226531;28;20053;-76
2023/05/24 11:50:25;;;;;;;18.27;5.00;;;15.00;91.60;;;;;;6225580;28;20057;-75
2023/05/24 11:53:27;;;;;;;18.58;5.07;;;14.90;92.20;;;;;;6226330;28;20050;-74
2023/05/24 11:56:31;;;;;;;17.08;4.43;;;15.10;91.90;;;;;;6225573;28;20050;-75
2023/05/24 11:59:36;;;;;;;14.07;4.72;;;14.70;92.30;;;;;;6225359;28;20061;-75
2023/05/24 12:02:38;;;;;;;10.52;4.78;;;14.90;91.40;;;;;;6225718;28;20060;-75
2023/05/24 12:05:41;;;;;;;13.98;4.63;;;15.00;91.10;;;;;;6225319;28;20058;-75
2023/05/24 12:08:43;;;;;;;12.40;4.38;;;15.00;91.40;;;;;;6225294;28;20447;-76
2023/05/24 12:11:48;;;;;;;11.32;4.82;;;14.90;91.30;;;;;;6225277;28;20066;-76
2023/05/24 12:14:55;;;;;;;13.45;4.53;;;15.20;90.70;;;;;;6225110;28;20042;-75
2023/05/24 12:17:57;;;;;;;13.52;4.40;;;15.30;90.90;;;;;;6225194;28;20054;-76
2023/05/24 12:20:58;;;;;;;11.48;4.22;;;15.70;90.90;;;;;;6231501;28;20056;-76
2023/05/24 12:24:11;;;;;;;11.82;4.78;;;15.80;90.40;;;;;;6249428;28;20054;-77
2023/05/24 12:27:14;;;;;;;13.07;4.13;;;15.70;89.50;;;;;;6249401;28;20056;-77
2023/05/24 12:30:20;;;;;;;10.93;4.10;;;15.80;87.00;;;;;;6249270;28;20045;-74
2023/05/24 12:33:21;;;;;;;12.35;4.22;;;15.80;88.30;;;;;;6249622;28;20495;-76
2023/05/24 12:36:23;;;;;;;12.10;4.18;;;16.20;84.10;;;;;;6249254;28;20045;-75
2023/05/24 12:39:30;;;;;;;12.68;4.38;;;16.50;84.60;;;;;;6248997;28;20478;-74
2023/05/24 12:42:35;;;;;;;12.43;4.15;;;16.50;83.20;;;;;;6256236;28;20542;-76
2023/05/24 12:45:37;;;;;;;12.15;4.15;;;16.70;81.30;;;;;;6248975;28;20267;-77
2023/05/24 12:48:39;;;;;;;10.10;3.92;;;17.00;81.60;;;;;;6248628;28;20048;-77
2023/05/24 12:51:41;;;;;;;11.85;4.15;;;16.80;81.90;;;;;;6231386;28;20053;-75
2023/05/24 12:54:42;;;;;;;10.32;3.90;;;16.60;82.80;;;;;;6248623;28;20049;-74
2023/05/24 12:57:51;;;;;;;10.82;4.32;;;16.50;82.50;;;;;;6248774;28;20041;-75
2023/05/24 13:00:53;;;;;;;9.82;4.10;;;17.20;82.90;;;;;;6230565;28;20049;-77
2023/05/24 13:03:55;;;;;;;12.70;4.82;;;17.50;80.50;;;;;;6248322;28;20052;-74
2023/05/24 13:06:57;;;;;;;13.90;4.72;;;17.50;79.70;;;;;;6248672;28;20511;-74
2023/05/24 13:09:59;;;;;;;13.38;4.15;;;17.60;79.70;;;;;;6248180;28;20502;-74
2023/05/24 13:13:02;;;;;;;11.85;4.00;;;17.40;78.80;;;;;;6248326;28;20050;-74
2023/05/24 13:16:06;;;;;;;14.38;4.15;;;17.50;78.20;;;;;;6248059;28;20049;-75
2023/05/24 13:19:09;;;;;;;9.30;4.20;;;17.50;79.50;;;;;;6248217;28;20056;-74
2023/05/24 13:22:10;;;;;;;10.68;4.20;;;17.70;78.30;;;;;;6248131;28;20091;-76
2023/05/24 13:25:12;;;;;;;10.65;4.22;;;17.80;77.30;;;;;;6248299;28;20046;-74
2023/05/24 13:28:15;;;;;;;9.50;4.10;;;17.90;78.40;;;;;;6247911;28;20517;-75
2023/05/24 13:31:17;;;;;;;11.15;4.13;;;18.40;78.00;;;;;;6248104;28;20049;-74
2023/05/24 13:34:19;;;;;;;10.90;4.20;;;18.70;73.00;;;;;;6248122;28;20045;-75
2023/05/24 13:37:21;;;;;;;10.55;4.18;;;18.50;74.60;;;;;;6248004;28;20056;-76
2023/05/24 13:40:24;;;;;;;10.45;3.90;;;18.20;74.50;;;;;;6247652;28;20072;-75
2023/05/24 13:43:27;;;;;;;9.98;3.70;;;18.60;72.90;;;;;;6248007;28;20089;-75
2023/05/24 13:46:29;;;;;;;8.98;3.38;;;18.50;74.10;;;;;;6247518;28;20392;-76
2023/05/24 13:49:31;;;;;;;12.07;4.25;;;18.20;74.70;;;;;;6247374;28;20049;-75
2023/05/24 13:52:33;;;;;;;11.82;4.07;;;18.50;73.60;;;;;;6247890;28;20104;-76
2023/05/24 13:55:37;;;;;;;11.40;4.10;;;18.70;72.40;;;;;;6249230;28;20049;-76
2023/05/24 13:58:40;;;;;;;9.93;4.13;;;19.20;71.10;;;;;;6247855;28;20045;-74
2023/05/24 14:01:43;;;;;;;9.70;3.28;;;19.20;70.80;;;;;;6247311;28;20045;-75
2023/05/24 14:04:45;;;;;;;10.68;3.92;;;18.80;72.10;;;;;;6246923;28;20130;-74
2023/05/24 14:07:47;;;;;;;10.02;3.35;;;19.20;69.90;;;;;;6246795;28;20045;-75
2023/05/24 14:10:50;;;;;;;11.07;3.88;;;19.50;72.60;;;;;;6246877;28;20053;-75
2023/05/24 14:13:53;;;;;;;10.10;3.70;;;19.60;72.50;;;;;;6246869;28;20489;-76
2023/05/24 14:16:55;;;;;;;11.52;3.83;;;19.60;72.70;;;;;;6247002;28;20045;-74
2023/05/24 14:19:57;;;;;;;9.10;3.55;;;20.20;69.00;;;;;;6246909;28;20049;-76
2023/05/24 14:22:59;;;;;;;10.82;3.78;;;20.60;67.20;;;;;;6246517;28;20061;-74
2023/05/24 14:26:01;;;;;;;9.70;3.22;;;20.70;64.00;;;;;;6247178;28;20398;-75
2023/05/24 14:29:04;;;;;;;8.68;3.33;;;20.80;63.00;;;;;;6246605;28;20509;-75
2023/05/24 14:32:06;;;;;;;9.38;3.38;;;20.60;63.70;;;;;;6246773;28;20073;-75
2023/05/24 14:35:09;;;;;;;9.10;3.42;;;20.90;62.30;;;;;;6246516;28;20175;-75
2023/05/24 14:38:11;;;;;;;11.57;4.47;;;20.50;63.90;;;;;;6246872;28;20056;-75
2023/05/24 14:41:14;;;;;;;7.22;3.25;;;20.50;66.70;;;;;;6251756;28;20135;-74
2023/05/24 14:44:17;;;;;;;8.07;3.27;;;20.50;65.30;;;;;;6251180;28;20060;-74
2023/05/24 14:47:20;;;;;;;9.13;3.60;;;20.80;65.00;;;;;;6251246;28;20389;-75
2023/05/24 14:50:22;;;;;;;11.02;3.35;;;21.40;63.90;;;;;;6251393;28;20081;-76
2023/05/24 14:53:24;;;;;;;10.27;3.35;;;22.00;62.80;;;;;;6250816;28;20053;-74
2023/05/24 14:56:26;;;;;;;8.60;3.20;;;21.90;64.50;;;;;;6251303;28;20045;-75
2023/05/24 14:59:29;;;;;;;8.10;2.60;;;22.30;61.70;;;;;;6250962;28;20080;-75
2023/05/24 15:02:32;;;;;;;6.78;2.55;;;22.30;60.00;;;;;;6250926;28;20065;-76
2023/05/24 15:05:34;;;;;;;;;;;22.00;60.40;;;;;;6251516;28;20049;-75
2023/05/24 15:08:36;;;;;;;9.63;3.17;;;22.50;59.30;;;;;;6250898;28;19921;-74
2023/05/24 15:11:40;;;;;;;9.50;2.70;;;21.90;59.00;;;;;;6232679;28;20056;-76
2023/05/24 15:14:43;;;;;;;10.60;3.47;;;22.00;57.30;;;;;;6252368;28;20048;-75
2023/05/24 15:17:45;;;;;;;;;;;22.20;56.10;;;;;;6276100;28;20117;-76
2023/05/24 15:20:47;;;;;;;8.17;2.80;;;22.40;58.20;;;;;;6275266;28;19963;-75
2023/05/24 15:23:48;;;;;;;7.20;2.85;;;22.70;55.50;;;;;;6273782;28;20038;-75
2023/05/24 15:26:51;;;;;;;8.35;2.60;;;23.00;55.80;;;;;;6255510;28;20060;-76
2023/05/24 15:29:57;;;;;;;8.55;2.90;;;23.00;56.60;;;;;;6251421;28;20049;-75
2023/05/24 15:32:59;;;;;;;9.57;2.90;;;22.70;56.40;;;;;;6250637;28;20048;-76
2023/05/24 15:36:01;;;;;;;10.05;2.90;;;22.10;56.70;;;;;;6250428;28;20487;-76
2023/05/24 15:39:04;;;;;;;8.73;2.95;;;21.80;58.00;;;;;;6250344;28;20047;-77
2023/05/24 15:42:06;;;;;;;;;;;22.10;57.30;;;;;;6250447;28;20140;-77
2023/05/24 15:45:11;;;;;;;5.68;2.47;;;22.80;53.80;;;;;;6250306;28;20375;-76
2023/05/24 15:48:13;;;;;;;7.97;2.80;;;22.60;56.20;;;;;;6250232;28;20048;-75
2023/05/24 15:51:15;;;;;;;6.22;2.38;;;23.80;50.60;;;;;;6249719;28;20442;-76